createdAt,value
2017-11-29T00:00:43.190Z,4.00
2017-11-29T00:01:43.224Z,4.00
2017-11-29T00:02:43.556Z,4.00
2017-11-29T00:03:43.317Z,4.00
2017-11-29T00:04:43.344Z,4.00
2017-11-29T00:05:43.378Z,4.00
2017-11-29T00:06:43.376Z,4.00
2017-11-29T00:07:43.407Z,4.00
2017-11-29T00:08:43.453Z,4.00
2017-11-29T00:09:43.772Z,4.00
2017-11-29T00:10:43.502Z,4.00
2017-11-29T00:11:43.561Z,4.00
2017-11-29T00:12:43.599Z,4.00
2017-11-29T00:13:43.593Z,4.00
2017-11-29T00:14:43.635Z,4.00
2017-11-29T00:15:43.955Z,4.00
2017-11-29T00:16:43.688Z,4.00
2017-11-29T00:17:43.745Z,4.00
2017-11-29T00:18:43.749Z,4.00
2017-11-29T00:19:43.779Z,4.00
2017-11-29T00:20:43.815Z,4.00
2017-11-29T00:21:44.172Z,4.00
2017-11-29T00:22:43.871Z,4.00
2017-11-29T00:23:43.902Z,8.00
2017-11-29T00:24:43.963Z,0.00
2017-11-29T00:25:43.963Z,0.00
2017-11-29T00:26:43.995Z,0.00
2017-11-29T00:27:44.338Z,0.00
2017-11-29T00:28:44.059Z,0.00
2017-11-29T00:29:44.127Z,0.00
2017-11-29T00:30:44.151Z,0.00
2017-11-29T00:31:44.180Z,0.00
2017-11-29T00:32:44.188Z,0.00
2017-11-29T00:33:44.242Z,0.00
2017-11-29T00:34:44.576Z,0.00
2017-11-29T00:35:44.304Z,0.00
2017-11-29T00:36:44.337Z,0.00
2017-11-29T00:37:44.366Z,0.00
2017-11-29T00:38:44.366Z,0.00
2017-11-29T00:39:44.401Z,0.00
2017-11-29T00:40:44.429Z,0.00
2017-11-29T00:41:44.760Z,0.00
2017-11-29T00:42:44.521Z,0.00
2017-11-29T00:43:44.550Z,0.00
2017-11-29T00:44:44.553Z,0.00
2017-11-29T00:45:44.583Z,0.00
2017-11-29T00:46:44.644Z,0.00
2017-11-29T00:47:44.673Z,0.00
2017-11-29T00:48:45.006Z,0.00
2017-11-29T00:49:44.736Z,0.00
2017-11-29T00:50:44.774Z,0.00
2017-11-29T00:51:44.806Z,0.00
2017-11-29T00:52:44.834Z,0.00
2017-11-29T00:53:44.832Z,0.00
2017-11-29T00:54:44.864Z,0.00
2017-11-29T00:55:45.228Z,0.00
2017-11-29T00:56:44.938Z,0.00
2017-11-29T00:57:44.983Z,0.00
2017-11-29T00:58:45.018Z,0.00
2017-11-29T00:59:45.019Z,0.00
2017-11-29T01:00:45.078Z,0.00
2017-11-29T01:01:45.081Z,0.00
2017-11-29T01:02:45.497Z,0.00
2017-11-29T01:03:45.159Z,0.00
2017-11-29T01:04:45.200Z,0.00
2017-11-29T01:05:45.203Z,0.00
2017-11-29T01:06:45.236Z,0.00
2017-11-29T01:07:45.293Z,0.00
2017-11-29T01:08:45.331Z,0.00
2017-11-29T01:09:45.667Z,0.00
2017-11-29T01:10:45.365Z,0.00
2017-11-29T01:11:45.394Z,0.00
2017-11-29T01:12:45.447Z,0.00
2017-11-29T01:13:45.486Z,0.00
2017-11-29T01:14:45.511Z,0.00
2017-11-29T01:15:45.540Z,0.00
2017-11-29T01:16:45.874Z,0.00
2017-11-29T01:17:45.603Z,0.00
2017-11-29T01:18:45.633Z,0.00
2017-11-29T01:19:45.639Z,0.00
2017-11-29T01:20:45.667Z,0.00
2017-11-29T01:21:45.726Z,0.00
2017-11-29T01:22:45.758Z,0.00
2017-11-29T01:23:46.060Z,0.00
2017-11-29T01:24:45.792Z,0.00
2017-11-29T01:25:45.831Z,0.00
2017-11-29T01:26:45.884Z,0.00
2017-11-29T01:27:45.888Z,0.00
2017-11-29T01:28:45.915Z,0.00
2017-11-29T01:29:45.980Z,0.00
2017-11-29T01:30:46.281Z,0.00
2017-11-29T01:31:46.042Z,0.00
2017-11-29T01:32:46.069Z,0.00
2017-11-29T01:33:46.100Z,0.00
2017-11-29T01:34:46.102Z,0.00
2017-11-29T01:35:46.139Z,0.00
2017-11-29T01:36:46.189Z,0.00
2017-11-29T01:37:46.493Z,0.00
2017-11-29T01:38:46.231Z,0.00
2017-11-29T01:39:46.284Z,0.00
2017-11-29T01:40:46.287Z,0.00
2017-11-29T01:41:46.342Z,0.00
2017-11-29T01:42:46.377Z,0.00
2017-11-29T01:43:46.378Z,0.00
2017-11-29T01:44:46.740Z,0.00
2017-11-29T01:45:46.439Z,0.00
2017-11-29T01:46:46.496Z,0.00
2017-11-29T01:47:46.531Z,0.00
2017-11-29T01:48:46.562Z,0.00
2017-11-29T01:49:46.602Z,0.00
2017-11-29T01:50:46.623Z,0.00
2017-11-29T01:51:46.937Z,0.00
2017-11-29T01:52:46.683Z,0.00
2017-11-29T01:53:46.686Z,0.00
2017-11-29T01:54:46.717Z,0.00
2017-11-29T01:55:46.753Z,0.00
2017-11-29T01:56:46.783Z,0.00
2017-11-29T01:57:46.842Z,0.00
2017-11-29T01:58:47.173Z,0.00
2017-11-29T01:59:46.900Z,0.00
2017-11-29T02:00:46.939Z,0.00
2017-11-29T02:01:46.963Z,0.00
2017-11-29T02:02:46.965Z,0.00
2017-11-29T02:03:47.014Z,0.00
2017-11-29T02:04:47.029Z,0.00
2017-11-29T02:05:47.359Z,0.00
2017-11-29T02:06:47.091Z,0.00
2017-11-29T02:07:47.119Z,0.00
2017-11-29T02:08:47.185Z,0.00
2017-11-29T02:09:47.208Z,0.00
2017-11-29T02:10:47.211Z,0.00
2017-11-29T02:11:47.701Z,0.00
2017-11-29T02:12:47.307Z,0.00
2017-11-29T02:13:47.337Z,0.00
2017-11-29T02:14:47.368Z,0.00
2017-11-29T02:15:47.366Z,0.00
2017-11-29T02:16:47.427Z,0.00
2017-11-29T02:17:47.729Z,0.00
2017-11-29T02:18:47.490Z,0.00
2017-11-29T02:19:47.548Z,0.00
2017-11-29T02:20:47.555Z,0.00
2017-11-29T02:21:47.589Z,0.00
2017-11-29T02:22:47.586Z,0.00
2017-11-29T02:23:47.913Z,0.00
2017-11-29T02:24:47.645Z,0.00
2017-11-29T02:26:47.710Z,0.00
2017-11-29T02:27:47.739Z,0.00
2017-11-29T02:28:47.771Z,0.00
2017-11-29T02:29:47.834Z,0.00
2017-11-29T02:30:48.187Z,0.00
2017-11-29T02:31:47.862Z,0.00
2017-11-29T02:32:47.896Z,0.00
2017-11-29T02:33:47.957Z,0.00
2017-11-29T02:34:47.957Z,0.00
2017-11-29T02:35:47.987Z,0.00
2017-11-29T02:36:48.054Z,0.00
2017-11-29T02:37:48.426Z,0.00
2017-11-29T02:38:48.087Z,0.00
2017-11-29T02:39:48.139Z,0.00
2017-11-29T02:40:48.142Z,0.00
2017-11-29T02:41:48.202Z,0.00
2017-11-29T02:42:48.272Z,0.00
2017-11-29T02:43:48.261Z,0.00
2017-11-29T02:44:48.564Z,0.00
2017-11-29T02:45:48.299Z,0.00
2017-11-29T02:46:48.366Z,0.00
2017-11-29T02:47:48.405Z,0.00
2017-11-29T02:48:48.387Z,0.00
2017-11-29T02:49:48.425Z,0.00
2017-11-29T02:50:48.455Z,0.00
2017-11-29T02:51:48.823Z,0.00
2017-11-29T02:52:48.544Z,0.00
2017-11-29T02:53:48.547Z,0.00
2017-11-29T02:54:48.632Z,0.00
2017-11-29T02:55:48.604Z,0.00
2017-11-29T02:56:48.664Z,0.00
2017-11-29T02:57:48.697Z,0.00
2017-11-29T02:58:49.038Z,0.00
2017-11-29T02:59:48.756Z,0.00
2017-11-29T03:00:48.825Z,0.00
2017-11-29T03:01:48.835Z,0.00
2017-11-29T03:02:48.862Z,0.00
2017-11-29T03:03:48.886Z,0.00
2017-11-29T03:04:48.913Z,0.00
2017-11-29T03:05:49.305Z,0.00
2017-11-29T03:06:48.946Z,0.00
2017-11-29T03:07:49.012Z,0.00
2017-11-29T03:08:49.036Z,0.00
2017-11-29T03:09:49.042Z,0.00
2017-11-29T03:10:49.097Z,0.00
2017-11-29T03:11:49.133Z,0.00
2017-11-29T03:12:49.461Z,0.00
2017-11-29T03:13:49.190Z,0.00
2017-11-29T03:14:49.223Z,0.00
2017-11-29T03:15:49.273Z,0.00
2017-11-29T03:16:49.285Z,0.00
2017-11-29T03:17:49.313Z,0.00
2017-11-29T03:18:49.321Z,0.00
2017-11-29T03:19:49.646Z,0.00
2017-11-29T03:20:49.432Z,0.00
2017-11-29T03:21:49.412Z,0.00
2017-11-29T03:22:49.468Z,0.00
2017-11-29T03:23:49.505Z,0.00
2017-11-29T03:24:49.535Z,0.00
2017-11-29T03:25:49.567Z,0.00
2017-11-29T03:26:49.978Z,0.00
2017-11-29T03:27:49.595Z,0.00
2017-11-29T03:28:49.655Z,0.00
2017-11-29T03:29:49.655Z,0.00
2017-11-29T03:30:49.720Z,0.00
2017-11-29T03:31:49.802Z,0.00
2017-11-29T03:32:49.755Z,0.00
2017-11-29T03:33:50.102Z,0.00
2017-11-29T03:34:49.839Z,0.00
2017-11-29T03:35:49.848Z,0.00
2017-11-29T03:36:49.872Z,0.00
2017-11-29T03:37:49.911Z,0.00
2017-11-29T03:38:49.979Z,0.00
2017-11-29T03:39:50.004Z,0.00
2017-11-29T03:40:50.312Z,0.00
2017-11-29T03:41:50.057Z,0.00
2017-11-29T03:42:50.061Z,0.00
2017-11-29T03:43:50.108Z,0.00
2017-11-29T03:44:50.120Z,0.00
2017-11-29T03:45:50.158Z,0.00
2017-11-29T03:46:50.183Z,0.00
2017-11-29T03:47:50.512Z,0.00
2017-11-29T03:48:50.255Z,0.00
2017-11-29T03:49:50.273Z,0.00
2017-11-29T03:50:50.348Z,0.00
2017-11-29T03:51:50.334Z,0.00
2017-11-29T03:52:50.368Z,0.00
2017-11-29T03:53:50.471Z,0.00
2017-11-29T03:54:50.776Z,0.00
2017-11-29T03:55:50.468Z,0.00
2017-11-29T03:56:50.594Z,0.00
2017-11-29T03:57:50.552Z,0.00
2017-11-29T03:58:50.583Z,0.00
2017-11-29T03:59:50.583Z,0.00
2017-11-29T04:00:50.942Z,0.00
2017-11-29T04:01:50.644Z,0.00
2017-11-29T04:02:50.725Z,0.00
2017-11-29T04:03:50.752Z,0.00
2017-11-29T04:04:50.765Z,0.00
2017-11-29T04:05:50.797Z,0.00
2017-11-29T04:06:51.101Z,0.00
2017-11-29T04:07:50.872Z,0.00
2017-11-29T04:08:50.860Z,0.00
2017-11-29T04:09:50.894Z,0.00
2017-11-29T04:10:50.935Z,0.00
2017-11-29T04:11:50.980Z,0.00
2017-11-29T04:12:51.313Z,0.00
2017-11-29T04:13:51.047Z,0.00
2017-11-29T04:14:51.045Z,0.00
2017-11-29T04:15:51.104Z,0.00
2017-11-29T04:16:51.124Z,0.00
2017-11-29T04:17:51.142Z,0.00
2017-11-29T04:18:51.180Z,0.00
2017-11-29T04:19:51.522Z,0.00
2017-11-29T04:20:51.241Z,0.00
2017-11-29T04:21:51.223Z,0.00
2017-11-29T04:22:51.307Z,0.00
2017-11-29T04:23:51.344Z,0.00
2017-11-29T04:24:51.392Z,0.00
2017-11-29T04:25:51.397Z,0.00
2017-11-29T04:26:51.725Z,0.00
2017-11-29T04:27:51.461Z,0.00
2017-11-29T04:28:51.444Z,0.00
2017-11-29T04:29:51.475Z,0.00
2017-11-29T04:30:51.537Z,0.00
2017-11-29T04:31:51.588Z,0.00
2017-11-29T04:32:51.546Z,0.00
2017-11-29T04:33:51.928Z,0.00
2017-11-29T04:34:51.658Z,0.00
2017-11-29T04:35:51.654Z,0.00
2017-11-29T04:36:51.685Z,0.00
2017-11-29T04:37:51.722Z,0.00
2017-11-29T04:38:51.781Z,0.00
2017-11-29T04:39:51.827Z,0.00
2017-11-29T04:40:52.162Z,0.00
2017-11-29T04:41:51.842Z,0.00
2017-11-29T04:42:51.875Z,0.00
2017-11-29T04:43:51.961Z,0.00
2017-11-29T04:44:51.937Z,0.00
2017-11-29T04:45:51.963Z,0.00
2017-11-29T04:46:51.981Z,0.00
2017-11-29T04:47:52.376Z,0.00
2017-11-29T04:48:52.088Z,0.00
2017-11-29T04:49:52.123Z,0.00
2017-11-29T04:50:52.102Z,0.00
2017-11-29T04:51:52.183Z,0.00
2017-11-29T04:52:52.189Z,0.00
2017-11-29T04:53:52.263Z,0.00
2017-11-29T04:54:52.602Z,0.00
2017-11-29T04:55:52.276Z,0.00
2017-11-29T04:56:52.290Z,0.00
2017-11-29T04:57:52.340Z,0.00
2017-11-29T04:58:52.415Z,0.00
2017-11-29T04:59:52.799Z,0.00
2017-11-29T05:00:52.408Z,0.00
2017-11-29T05:01:52.819Z,0.00
2017-11-29T05:02:52.472Z,0.00
2017-11-29T05:03:52.522Z,0.00
2017-11-29T05:04:52.676Z,0.00
2017-11-29T05:05:52.614Z,0.00
2017-11-29T05:06:52.657Z,0.00
2017-11-29T05:07:52.645Z,0.00
2017-11-29T05:08:53.006Z,0.00
2017-11-29T05:09:52.708Z,0.00
2017-11-29T05:10:52.720Z,0.00
2017-11-29T05:11:52.749Z,0.00
2017-11-29T05:12:52.831Z,0.00
2017-11-29T05:13:52.866Z,0.00
2017-11-29T05:14:52.922Z,0.00
2017-11-29T05:15:53.222Z,0.00
2017-11-29T05:16:52.907Z,0.00
2017-11-29T05:17:52.999Z,0.00
2017-11-29T05:18:52.983Z,0.00
2017-11-29T05:19:52.995Z,0.00
2017-11-29T05:20:53.034Z,0.00
2017-11-29T05:21:53.074Z,0.00
2017-11-29T05:22:53.519Z,0.00
2017-11-29T05:23:53.138Z,0.00
2017-11-29T05:24:53.163Z,0.00
2017-11-29T05:25:53.199Z,0.00
2017-11-29T05:26:53.211Z,0.00
2017-11-29T05:27:53.329Z,0.00
2017-11-29T05:28:53.273Z,0.00
2017-11-29T05:29:53.757Z,0.00
2017-11-29T05:30:53.335Z,0.00
2017-11-29T05:31:53.437Z,0.00
2017-11-29T05:32:53.472Z,0.00
2017-11-29T05:33:53.439Z,0.00
2017-11-29T05:34:53.509Z,0.00
2017-11-29T05:35:53.509Z,0.00
2017-11-29T05:36:53.871Z,0.00
2017-11-29T05:37:53.601Z,0.00
2017-11-29T05:38:53.593Z,0.00
2017-11-29T05:39:53.685Z,0.00
2017-11-29T05:40:53.646Z,0.00
2017-11-29T05:41:53.742Z,0.00
2017-11-29T05:42:53.773Z,0.00
2017-11-29T05:43:54.102Z,0.00
2017-11-29T05:44:53.792Z,0.00
2017-11-29T05:45:53.807Z,0.00
2017-11-29T05:46:53.906Z,0.00
2017-11-29T05:47:53.927Z,0.00
2017-11-29T05:48:53.908Z,0.00
2017-11-29T05:49:53.992Z,0.00
2017-11-29T05:50:54.325Z,0.00
2017-11-29T05:51:53.982Z,0.00
2017-11-29T05:52:54.084Z,0.00
2017-11-29T05:53:54.043Z,0.00
2017-11-29T05:54:54.102Z,0.00
2017-11-29T05:55:54.106Z,0.00
2017-11-29T05:56:54.207Z,0.00
2017-11-29T05:57:54.542Z,0.00
2017-11-29T05:58:54.221Z,0.00
2017-11-29T05:59:54.278Z,0.00
2017-11-29T06:00:54.278Z,0.00
2017-11-29T06:01:54.361Z,0.00
2017-11-29T06:02:54.400Z,0.00
2017-11-29T06:03:54.720Z,0.00
2017-11-29T06:04:54.457Z,0.00
2017-11-29T06:05:54.416Z,0.00
2017-11-29T06:06:54.448Z,0.00
2017-11-29T06:07:54.504Z,0.00
2017-11-29T06:08:54.528Z,0.00
2017-11-29T06:09:54.594Z,0.00
2017-11-29T06:10:54.937Z,0.00
2017-11-29T06:11:54.638Z,0.00
2017-11-29T06:12:54.684Z,0.00
2017-11-29T06:13:54.680Z,0.00
2017-11-29T06:14:54.691Z,0.00
2017-11-29T06:15:54.795Z,0.00
2017-11-29T06:16:54.848Z,0.00
2017-11-29T06:17:55.139Z,0.00
2017-11-29T06:18:54.822Z,0.00
2017-11-29T06:19:54.903Z,0.00
2017-11-29T06:20:54.956Z,0.00
2017-11-29T06:21:54.909Z,0.00
2017-11-29T06:22:55.016Z,0.00
2017-11-29T06:23:55.024Z,0.00
2017-11-29T06:24:55.350Z,0.00
2017-11-29T06:25:55.046Z,0.00
2017-11-29T06:26:55.134Z,0.00
2017-11-29T06:27:55.144Z,0.00
2017-11-29T06:28:55.190Z,0.00
2017-11-29T06:29:55.224Z,0.00
2017-11-29T06:30:55.225Z,0.00
2017-11-29T06:31:55.533Z,0.00
2017-11-29T06:32:55.315Z,0.00
2017-11-29T06:33:55.349Z,0.00
2017-11-29T06:34:55.328Z,0.00
2017-11-29T06:35:55.359Z,0.00
2017-11-29T06:36:55.437Z,0.00
2017-11-29T06:37:55.469Z,0.00
2017-11-29T06:38:55.805Z,0.00
2017-11-29T06:39:55.519Z,0.00
2017-11-29T06:40:55.542Z,0.00
2017-11-29T06:41:55.600Z,0.00
2017-11-29T06:42:55.576Z,0.00
2017-11-29T06:43:55.605Z,0.00
2017-11-29T06:44:55.683Z,4.00
2017-11-29T06:45:56.005Z,4.00
2017-11-29T06:46:55.733Z,0.00
2017-11-29T06:47:55.720Z,4.00
2017-11-29T06:48:55.814Z,4.00
2017-11-29T06:49:55.823Z,4.00
2017-11-29T06:50:55.872Z,4.00
2017-11-29T06:51:55.884Z,4.00
2017-11-29T06:52:56.234Z,8.00
2017-11-29T06:53:55.898Z,8.00
2017-11-29T06:54:55.994Z,12.00
2017-11-29T06:55:56.007Z,12.00
2017-11-29T06:56:56.003Z,12.00
2017-11-29T06:57:56.019Z,16.00
2017-11-29T06:58:56.066Z,20.00
2017-11-29T06:59:56.433Z,24.00
2017-11-29T07:00:56.130Z,20.00
2017-11-29T07:01:56.152Z,24.00
2017-11-29T07:02:56.214Z,32.00
2017-11-29T07:03:56.208Z,36.00
2017-11-29T07:04:56.314Z,40.00
2017-11-29T07:05:56.468Z,44.00
2017-11-29T07:06:56.652Z,48.00
2017-11-29T07:07:56.430Z,56.00
2017-11-29T07:08:56.378Z,60.00
2017-11-29T07:09:56.439Z,64.00
2017-11-29T07:10:56.506Z,72.00
2017-11-29T07:11:56.519Z,80.00
2017-11-29T07:12:56.496Z,88.00
2017-11-29T07:13:56.879Z,100.00
2017-11-29T07:14:56.673Z,104.00
2017-11-29T07:15:56.623Z,120.00
2017-11-29T07:16:56.621Z,128.00
2017-11-29T07:17:56.652Z,140.00
2017-11-29T07:18:56.744Z,152.00
2017-11-29T07:19:56.750Z,160.00
2017-11-29T07:20:57.098Z,172.00
2017-11-29T07:21:56.780Z,184.00
2017-11-29T07:22:56.836Z,196.00
2017-11-29T07:23:56.877Z,204.00
2017-11-29T07:24:56.899Z,220.00
2017-11-29T07:25:56.879Z,228.00
2017-11-29T07:27:57.013Z,248.00
2017-11-29T07:28:57.343Z,256.00
2017-11-29T07:29:57.083Z,268.00
2017-11-29T07:30:57.132Z,276.00
2017-11-29T07:31:57.133Z,288.00
2017-11-29T07:32:57.118Z,304.00
2017-11-29T07:33:57.143Z,312.00
2017-11-29T07:34:57.178Z,324.00
2017-11-29T07:35:57.542Z,336.00
2017-11-29T07:36:57.236Z,344.00
2017-11-29T07:37:57.299Z,360.00
2017-11-29T07:38:57.299Z,368.00
2017-11-29T07:39:57.364Z,380.00
2017-11-29T07:40:57.406Z,392.00
2017-11-29T07:41:57.390Z,404.00
2017-11-29T07:42:57.764Z,420.00
2017-11-29T07:43:57.454Z,428.00
2017-11-29T07:44:57.491Z,444.00
2017-11-29T07:45:57.551Z,452.00
2017-11-29T07:46:57.525Z,464.00
2017-11-29T07:47:57.567Z,476.00
2017-11-29T07:48:57.630Z,488.00
2017-11-29T07:49:57.989Z,500.00
2017-11-29T07:50:57.721Z,512.00
2017-11-29T07:51:57.697Z,524.00
2017-11-29T07:52:57.770Z,536.00
2017-11-29T07:53:57.779Z,552.00
2017-11-29T07:54:58.058Z,568.00
2017-11-29T07:55:57.803Z,580.00
2017-11-29T07:56:58.188Z,592.00
2017-11-29T07:57:57.873Z,596.00
2017-11-29T07:58:57.946Z,604.00
2017-11-29T07:59:57.927Z,612.00
2017-11-29T08:00:57.962Z,616.00
2017-11-29T08:01:58.042Z,624.00
2017-11-29T08:02:58.069Z,632.00
2017-11-29T08:03:59.523Z,644.00
2017-11-29T08:04:58.082Z,660.00
2017-11-29T08:05:58.115Z,676.00
2017-11-29T08:06:58.207Z,688.00
2017-11-29T08:07:58.226Z,700.00
2017-11-29T08:08:58.219Z,704.00
2017-11-29T08:09:58.239Z,696.00
2017-11-29T08:10:58.621Z,700.00
2017-11-29T08:11:58.297Z,696.00
2017-11-29T08:12:58.343Z,704.00
2017-11-29T08:13:58.361Z,716.00
2017-11-29T08:14:58.439Z,716.00
2017-11-29T08:15:58.468Z,724.00
2017-11-29T08:16:58.467Z,740.00
2017-11-29T08:17:58.853Z,764.00
2017-11-29T08:18:58.562Z,792.00
2017-11-29T08:19:58.610Z,796.00
2017-11-29T08:20:58.578Z,808.00
2017-11-29T08:21:58.673Z,828.00
2017-11-29T08:22:58.710Z,844.00
2017-11-29T08:23:58.669Z,832.00
2017-11-29T08:24:59.069Z,828.00
2017-11-29T08:25:58.790Z,824.00
2017-11-29T08:26:58.829Z,840.00
2017-11-29T08:27:58.873Z,840.00
2017-11-29T08:28:58.869Z,840.00
2017-11-29T08:30:58.956Z,860.00
2017-11-29T08:31:59.297Z,868.00
2017-11-29T08:32:58.963Z,880.00
2017-11-29T08:33:59.124Z,896.00
2017-11-29T08:34:59.087Z,904.00
2017-11-29T08:35:59.053Z,912.00
2017-11-29T08:36:59.121Z,916.00
2017-11-29T08:37:59.113Z,912.00
2017-11-29T08:38:59.508Z,908.00
2017-11-29T08:39:59.232Z,904.00
2017-11-29T08:40:59.263Z,904.00
2017-11-29T08:41:59.243Z,912.00
2017-11-29T08:42:59.306Z,924.00
2017-11-29T08:43:59.286Z,932.00
2017-11-29T08:44:59.341Z,960.00
2017-11-29T08:45:59.700Z,988.00
2017-11-29T08:46:59.400Z,1008.00
2017-11-29T08:47:59.431Z,1016.00
2017-11-29T08:48:59.505Z,1016.00
2017-11-29T08:49:59.540Z,1020.00
2017-11-29T08:50:59.519Z,1032.00
2017-11-29T08:51:59.618Z,1056.00
2017-11-29T08:52:59.927Z,1084.00
2017-11-29T08:53:59.649Z,1108.00
2017-11-29T08:54:59.623Z,1112.00
2017-11-29T08:55:59.731Z,1128.00
2017-11-29T08:56:59.734Z,1144.00
2017-11-29T08:57:59.784Z,1148.00
2017-11-29T08:58:59.757Z,1160.00
2017-11-29T09:00:00.239Z,1164.00
2017-11-29T09:00:59.881Z,1168.00
2017-11-29T09:01:59.887Z,1156.00
2017-11-29T09:02:59.956Z,1172.00
2017-11-29T09:03:59.929Z,1188.00
2017-11-29T09:04:59.931Z,1192.00
2017-11-29T09:05:59.980Z,1192.00
2017-11-29T09:07:00.397Z,1180.00
2017-11-29T09:08:00.106Z,1180.00
2017-11-29T09:09:00.114Z,1188.00
2017-11-29T09:10:00.095Z,1196.00
2017-11-29T09:11:00.189Z,1200.00
2017-11-29T09:12:00.162Z,1200.00
2017-11-29T09:13:00.262Z,1200.00
2017-11-29T09:14:00.626Z,1200.00
2017-11-29T09:15:00.307Z,1200.00
2017-11-29T09:16:00.360Z,1208.00
2017-11-29T09:17:00.380Z,1216.00
2017-11-29T09:18:00.336Z,1220.00
2017-11-29T09:19:00.394Z,1224.00
2017-11-29T09:20:00.765Z,1232.00
2017-11-29T09:21:00.429Z,1232.00
2017-11-29T09:22:00.478Z,1236.00
2017-11-29T09:23:00.567Z,1240.00
2017-11-29T09:24:00.574Z,1248.00
2017-11-29T09:25:00.574Z,1244.00
2017-11-29T09:26:00.928Z,1252.00
2017-11-29T09:27:00.660Z,1256.00
2017-11-29T09:28:00.694Z,1264.00
2017-11-29T09:29:00.691Z,1264.00
2017-11-29T09:30:00.726Z,1264.00
2017-11-29T09:31:00.744Z,1268.00
2017-11-29T09:32:01.136Z,1272.00
2017-11-29T09:33:00.808Z,1280.00
2017-11-29T09:34:00.882Z,1288.00
2017-11-29T09:35:00.910Z,1292.00
2017-11-29T09:36:00.950Z,1300.00
2017-11-29T09:37:00.922Z,1300.00
2017-11-29T09:38:00.972Z,1304.00
2017-11-29T09:39:01.357Z,1308.00
2017-11-29T09:40:01.101Z,1304.00
2017-11-29T09:41:01.129Z,1308.00
2017-11-29T09:42:01.082Z,1304.00
2017-11-29T09:43:01.111Z,1296.00
2017-11-29T09:44:01.194Z,1288.00
2017-11-29T09:45:01.173Z,1284.00
2017-11-29T09:46:01.556Z,1296.00
2017-11-29T09:47:01.259Z,1304.00
2017-11-29T09:48:01.280Z,1312.00
2017-11-29T09:49:01.347Z,1324.00
2017-11-29T09:50:01.395Z,1336.00
2017-11-29T09:51:01.458Z,1352.00
2017-11-29T09:52:01.409Z,1360.00
2017-11-29T09:53:01.767Z,1360.00
2017-11-29T09:54:01.461Z,1360.00
2017-11-29T09:55:01.541Z,1360.00
2017-11-29T09:56:01.559Z,1364.00
2017-11-29T09:57:01.610Z,1368.00
2017-11-29T09:58:01.641Z,1380.00
2017-11-29T09:59:01.636Z,1380.00
2017-11-29T10:00:01.995Z,1384.00
2017-11-29T10:01:01.674Z,1384.00
2017-11-29T10:02:01.717Z,1392.00
2017-11-29T10:03:01.754Z,1400.00
2017-11-29T10:04:01.780Z,1412.00
2017-11-29T10:05:01.832Z,1416.00
2017-11-29T10:06:01.873Z,1424.00
2017-11-29T10:07:02.227Z,1428.00
2017-11-29T10:08:01.932Z,1432.00
2017-11-29T10:09:01.931Z,1436.00
2017-11-29T10:10:02.045Z,1444.00
2017-11-29T10:11:02.008Z,1452.00
2017-11-29T10:12:02.017Z,1464.00
2017-11-29T10:13:02.073Z,1484.00
2017-11-29T10:14:02.423Z,1492.00
2017-11-29T10:15:02.157Z,1508.00
2017-11-29T10:16:02.157Z,1492.00
2017-11-29T10:17:02.261Z,1484.00
2017-11-29T10:18:02.251Z,1484.00
2017-11-29T10:19:02.259Z,1476.00
2017-11-29T10:20:02.327Z,1472.00
2017-11-29T10:21:02.638Z,1472.00
2017-11-29T10:22:02.341Z,1468.00
2017-11-29T10:23:02.354Z,1476.00
2017-11-29T10:24:02.390Z,1480.00
2017-11-29T10:25:02.436Z,1480.00
2017-11-29T10:26:02.461Z,1484.00
2017-11-29T10:27:02.527Z,1488.00
2017-11-29T10:28:02.893Z,1492.00
2017-11-29T10:29:02.587Z,1496.00
2017-11-29T10:30:02.572Z,1500.00
2017-11-29T10:31:02.666Z,1500.00
2017-11-29T10:32:02.668Z,1500.00
2017-11-29T10:33:02.716Z,1512.00
2017-11-29T10:34:02.728Z,1504.00
2017-11-29T10:35:03.096Z,1512.00
2017-11-29T10:36:02.758Z,1516.00
2017-11-29T10:37:02.796Z,1540.00
2017-11-29T10:38:02.837Z,1564.00
2017-11-29T10:39:02.900Z,1568.00
2017-11-29T10:40:02.938Z,1568.00
2017-11-29T10:41:02.970Z,1580.00
2017-11-29T10:42:03.299Z,1608.00
2017-11-29T10:43:03.024Z,1656.00
2017-11-29T10:44:03.074Z,1688.00
2017-11-29T10:45:03.108Z,1700.00
2017-11-29T10:46:03.085Z,1660.00
2017-11-29T10:47:03.172Z,1612.00
2017-11-29T10:48:03.199Z,1604.00
2017-11-29T10:49:03.539Z,1636.00
2017-11-29T10:50:03.199Z,1688.00
2017-11-29T10:51:03.293Z,1760.00
2017-11-29T10:52:03.280Z,1856.00
2017-11-29T10:53:03.348Z,1928.00
2017-11-29T10:54:03.389Z,1876.00
2017-11-29T10:55:03.360Z,1844.00
2017-11-29T10:56:03.736Z,1848.00
2017-11-29T10:57:03.417Z,1836.00
2017-11-29T10:58:03.507Z,1824.00
2017-11-29T10:59:03.535Z,1896.00
2017-11-29T11:00:03.532Z,2016.00
2017-11-29T11:01:03.545Z,2152.00
2017-11-29T11:02:03.640Z,2248.00
2017-11-29T11:03:03.968Z,2360.00
2017-11-29T11:04:03.693Z,2420.00
2017-11-29T11:05:03.669Z,2428.00
2017-11-29T11:06:03.780Z,2508.00
2017-11-29T11:07:03.727Z,2616.00
2017-11-29T11:08:03.781Z,2644.00
2017-11-29T11:09:04.142Z,2776.00
2017-11-29T11:10:03.903Z,2948.00
2017-11-29T11:11:03.867Z,3000.00
2017-11-29T11:12:03.888Z,3052.00
2017-11-29T11:13:03.997Z,3064.00
2017-11-29T11:14:04.044Z,3116.00
2017-11-29T11:15:04.332Z,3284.00
2017-11-29T11:16:04.067Z,3372.00
2017-11-29T11:17:04.042Z,3396.00
2017-11-29T11:18:04.145Z,3408.00
2017-11-29T11:19:04.171Z,3388.00
2017-11-29T11:20:04.216Z,3256.00
2017-11-29T11:23:04.597Z,3400.00
2017-11-29T11:24:04.287Z,3336.00
2017-11-29T11:26:04.352Z,2972.00
2017-11-29T11:27:04.429Z,2816.00
2017-11-29T11:28:04.418Z,2704.00
2017-11-29T11:29:04.784Z,2616.00
2017-11-29T11:30:04.452Z,2736.00
2017-11-29T11:31:04.535Z,2876.00
2017-11-29T11:32:04.535Z,2912.00
2017-11-29T11:33:04.605Z,2888.00
2017-11-29T11:34:04.634Z,2768.00
2017-11-29T11:36:05.012Z,2532.00
2017-11-29T11:37:04.723Z,2520.00
2017-11-29T11:38:04.753Z,2556.00
2017-11-29T11:39:04.784Z,2724.00
2017-11-29T11:40:04.859Z,2876.00
2017-11-29T11:41:04.878Z,2992.00
2017-11-29T11:42:05.181Z,3116.00
2017-11-29T11:43:04.935Z,3152.00
2017-11-29T11:44:04.953Z,3044.00
2017-11-29T11:45:04.980Z,2908.00
2017-11-29T11:46:05.049Z,2832.00
2017-11-29T11:47:05.107Z,2776.00
2017-11-29T11:49:05.433Z,2796.00
2017-11-29T11:50:05.134Z,2772.00
2017-11-29T11:51:05.172Z,2760.00
2017-11-29T11:52:05.148Z,2728.00
2017-11-29T11:53:05.187Z,2676.00
2017-11-29T11:54:05.260Z,2628.00
2017-11-29T11:55:05.248Z,2576.00
2017-11-29T11:56:05.641Z,2456.00
2017-11-29T11:57:05.374Z,2348.00
2017-11-29T11:58:05.390Z,2132.00
2017-11-29T11:59:05.388Z,2064.00
2017-11-29T12:00:05.416Z,2008.00
2017-11-29T12:01:05.504Z,1928.00
2017-11-29T12:02:05.521Z,1860.00
2017-11-29T12:03:05.866Z,1808.00
2017-11-29T12:04:05.528Z,1768.00
2017-11-29T12:05:05.613Z,1736.00
2017-11-29T12:06:05.662Z,1704.00
2017-11-29T12:07:05.718Z,1656.00
2017-11-29T12:08:05.669Z,1588.00
2017-11-29T12:09:05.714Z,1520.00
2017-11-29T12:10:06.081Z,1496.00
2017-11-29T12:11:05.796Z,1480.00
2017-11-29T12:12:05.834Z,1476.00
2017-11-29T12:13:05.829Z,1440.00
2017-11-29T12:14:05.907Z,1408.00
2017-11-29T12:15:05.906Z,1420.00
2017-11-29T12:16:05.972Z,1460.00
2017-11-29T12:17:06.296Z,1548.00
2017-11-29T12:18:06.020Z,1684.00
2017-11-29T12:19:06.062Z,1780.00
2017-11-29T12:20:06.088Z,1872.00
2017-11-29T12:21:06.134Z,1896.00
2017-11-29T12:22:06.169Z,1892.00
2017-11-29T12:23:06.131Z,2012.00
2017-11-29T12:24:06.526Z,2152.00
2017-11-29T12:25:06.191Z,2236.00
2017-11-29T12:26:06.293Z,2348.00
2017-11-29T12:27:06.277Z,2480.00
2017-11-29T12:28:06.349Z,2564.00
2017-11-29T12:29:06.369Z,2528.00
2017-11-29T12:30:06.416Z,2468.00
2017-11-29T12:31:06.749Z,2464.00
2017-11-29T12:32:06.480Z,2440.00
2017-11-29T12:33:06.496Z,2556.00
2017-11-29T12:34:06.531Z,2716.00
2017-11-29T12:35:06.508Z,2744.00
2017-11-29T12:36:06.599Z,2668.00
2017-11-29T12:37:06.592Z,2496.00
2017-11-29T12:38:06.983Z,2200.00
2017-11-29T12:39:06.711Z,2032.00
2017-11-29T12:40:06.786Z,2056.00
2017-11-29T12:41:06.701Z,2056.00
2017-11-29T12:42:06.770Z,2032.00
2017-11-29T12:43:06.826Z,2000.00
2017-11-29T12:44:06.845Z,1984.00
2017-11-29T12:45:07.172Z,2000.00
2017-11-29T12:46:06.981Z,2060.00
2017-11-29T12:47:06.908Z,2160.00
2017-11-29T12:48:06.929Z,2292.00
2017-11-29T12:49:06.969Z,2440.00
2017-11-29T12:50:07.041Z,2588.00
2017-11-29T12:51:07.094Z,2876.00
2017-11-29T12:52:07.401Z,3184.00
2017-11-29T12:54:07.159Z,3132.00
2017-11-29T12:55:07.194Z,3068.00
2017-11-29T12:56:07.290Z,3132.00
2017-11-29T12:57:07.254Z,3172.00